Página principal
METAR-TAF:

METAR-TAF

Aeroportos :

Aeroporto Internacional Aimé Césaire

Fort-de-France, Martinica

latitude: 14-36N, longitude: 061-00W, altura: 5 m

Observação actual do tempo

O boletim foi feito há 27 minutos, às 06:00 UTC
Vento 9 kt de este
Temperatura 24°C
Humidade 94%
Pressão 1014 hPa
Visibilidade: 5000 m
chuva forte, neblina

METAR: TFFF 220600Z AUTO 10009KT 5000 +RA BR SCT017/// BKN025/// BKN033/// ///TCU 24/23 Q1014 TEMPO BKN018CB

Hora: 02:27 (06:27 UTC)

Previsão

O boletim foi feito há 1 hora e 27 minutos, às 05:00 UTC
Previsão válida de 22 às 06 UTC a 23 às 06 UTC
Vento 8 kt de este
Visibilidade 10 km ou mais
Nuvens dispersasa uma altura de 2500 ft
Probabilidade 40% :
Temporariamente
de 22 às 06 UTC a 22 às 20 UTC
Visibilidade: 3000 m
Nuvens fragmentadasa uma altura de 1800 ft, Cumulonimbus.
aguaceiros de chuva

TAF: TFFF 220500Z 2206/2306 09008KT 9999 SCT025 PROB40 TEMPO 2206/2220 3000 SHRA BKN018CB

Observações e previsões do tempo de mais de 4000 aeroportos (mensagens METAR e TAF).

As estações disponíveis são os pontos amarelos e vermelhos sobre o mapa.

Mova o rato sobre o mapa para ver o nome da estação.

Depois clique no ponto para visualizar as observações e previsões meteorológicas.

Para alterar o mapa : clique nos botões verdes com uma cruz preta para aumentar o zoom; no botão verde com uma pitada de zoom; ou nas setas verdes para mapas adjacentes.


METAR-TAF: